Time;durP1;ratioP1;P1;durP2;ratioP2;P2;SDS_P1;SDS_P2;PMS_P1;PMS_P2;Temp;Humidity;BMP_temperature;BMP_pressure;BME280_temperature;BME280_humidity;BME280_pressure;Samples;Min_cycle;Max_cycle;Signal;HPM_P1;HPM_P2
2022/10/06 00:01:04;;;;;;;3.67;3.38;;;19.10;75.70;;;;;;6195167;23;20149;-79
2022/10/06 00:03:30;;;;;;;4.18;3.50;;;19.10;75.80;;;;;;6247321;23;20294;-79
2022/10/06 00:06:00;;;;;;;4.00;3.60;;;19.10;75.70;;;;;;6246845;23;20224;-79
2022/10/06 00:08:26;;;;;;;3.80;3.50;;;19.10;75.70;;;;;;6195942;23;20149;-79
2022/10/06 00:10:55;;;;;;;3.80;3.50;;;19.10;75.70;;;;;;6274814;22;20195;-79
2022/10/06 00:13:22;;;;;;;3.92;3.10;;;19.10;75.70;;;;;;6226114;22;20168;-79
2022/10/06 00:15:49;;;;;;;4.10;3.70;;;19.10;75.70;;;;;;6225684;22;20145;-79
2022/10/06 00:18:17;;;;;;;4.03;3.60;;;19.10;75.70;;;;;;6175043;22;20160;-79
2022/10/06 00:20:44;;;;;;;3.40;3.10;;;19.10;75.60;;;;;;6174392;22;20168;-79
2022/10/06 00:23:11;;;;;;;3.70;3.40;;;19.10;75.70;;;;;;6199290;22;20160;-79
2022/10/06 00:25:38;;;;;;;3.90;3.50;;;19.10;75.60;;;;;;6174548;22;20576;-79
2022/10/06 00:28:05;;;;;;;4.35;3.95;;;19.10;75.70;;;;;;6174689;22;20209;-78
2022/10/06 00:30:32;;;;;;;4.07;3.70;;;19.10;75.70;;;;;;6149702;22;20160;-79
2022/10/06 00:32:59;;;;;;;3.90;3.60;;;19.20;75.70;;;;;;6199318;22;20180;-80
2022/10/06 00:35:31;;;;;;;4.35;3.95;;;19.10;75.70;;;;;;6200011;22;20634;-81
2022/10/06 00:37:58;;;;;;;4.20;3.80;;;19.20;75.80;;;;;;6176840;22;20145;-79
2022/10/06 00:40:25;;;;;;;3.92;3.60;;;19.10;75.80;;;;;;6150253;22;20402;-79
2022/10/06 00:42:54;;;;;;;4.43;4.03;;;19.10;75.80;;;;;;6199229;22;20157;-79
2022/10/06 00:45:25;;;;;;;4.38;3.97;;;19.10;75.90;;;;;;6150429;22;20655;-80
2022/10/06 00:47:51;;;;;;;4.28;3.85;;;19.10;75.90;;;;;;6250313;22;20137;-81
2022/10/06 00:50:17;;;;;;;4.15;3.80;;;19.10;76.00;;;;;;6250400;22;20140;-79
2022/10/06 00:52:43;;;;;;;4.57;4.18;;;19.10;76.10;;;;;;6250022;22;20177;-79
2022/10/06 00:55:10;;;;;;;4.22;3.83;;;19.10;76.00;;;;;;6277226;22;20191;-79
2022/10/06 00:57:37;;;;;;;4.20;3.70;;;19.10;75.90;;;;;;6250295;22;20509;-78
2022/10/06 01:00:05;;;;;;;4.70;4.30;;;19.10;75.70;;;;;;6250061;22;20167;-79
2022/10/06 01:02:38;;;;;;;3.92;3.63;;;19.10;76.10;;;;;;6224651;22;20153;-79
2022/10/06 01:05:05;;;;;;;4.35;3.95;;;19.10;75.80;;;;;;6277121;22;20187;-79
2022/10/06 01:07:30;;;;;;;3.97;3.58;;;19.10;75.90;;;;;;6250155;22;20339;-79
2022/10/06 01:09:57;;;;;;;3.88;3.47;;;19.10;75.70;;;;;;6276736;22;20643;-79
2022/10/06 01:12:25;;;;;;;4.40;4.00;;;19.10;75.60;;;;;;6250151;22;20169;-81
2022/10/06 01:14:51;;;;;;;4.30;3.90;;;19.10;75.80;;;;;;6250054;22;20125;-78
2022/10/06 01:17:33;;;;;;;4.32;3.92;;;19.10;75.70;;;;;;6224450;22;20144;-81
2022/10/06 01:20:07;;;;;;;3.72;3.42;;;19.10;75.70;;;;;;6249623;22;20144;-79
2022/10/06 01:22:34;;;;;;;4.75;4.20;;;19.10;75.60;;;;;;6250799;22;20586;-79
2022/10/06 01:25:00;;;;;;;4.53;3.92;;;19.10;75.80;;;;;;6277280;22;20215;-79
2022/10/06 01:27:28;;;;;;;4.05;3.65;;;19.10;75.70;;;;;;6224652;22;20231;-79
2022/10/06 01:29:54;;;;;;;4.40;4.00;;;19.10;75.70;;;;;;6224751;22;20145;-79
2022/10/06 01:32:21;;;;;;;4.00;3.60;;;19.10;75.80;;;;;;6224522;22;20168;-79
2022/10/06 01:34:47;;;;;;;3.70;3.40;;;19.10;75.70;;;;;;6250450;22;20242;-79
2022/10/06 01:37:12;;;;;;;4.45;4.05;;;19.00;75.70;;;;;;6249592;22;20144;-79
2022/10/06 01:39:38;;;;;;;3.95;3.55;;;19.10;75.70;;;;;;6276838;22;20608;-80
2022/10/06 01:42:05;;;;;;;4.13;3.72;;;19.10;75.80;;;;;;6249792;22;20143;-79
2022/10/06 01:44:31;;;;;;;3.75;3.45;;;19.10;75.60;;;;;;6249438;22;20137;-79
2022/10/06 01:46:57;;;;;;;3.92;3.40;;;19.10;75.70;;;;;;6224471;22;20144;-79
2022/10/06 01:49:23;;;;;;;3.92;3.58;;;19.10;75.60;;;;;;6224381;22;20155;-79
2022/10/06 01:51:49;;;;;;;4.03;3.63;;;19.10;75.70;;;;;;6224206;22;20200;-78
2022/10/06 01:54:15;;;;;;;3.78;3.47;;;19.10;75.80;;;;;;6250177;22;20449;-79
2022/10/06 01:56:41;;;;;;;4.20;3.80;;;19.00;75.70;;;;;;6224177;22;20144;-78
2022/10/06 01:59:08;;;;;;;4.22;3.83;;;19.00;75.70;;;;;;6249645;22;20179;-79
2022/10/06 02:01:34;;;;;;;4.28;3.88;;;19.00;75.80;;;;;;6224205;22;20145;-79
2022/10/06 02:04:00;;;;;;;3.70;3.40;;;19.00;75.70;;;;;;6224216;22;20231;-79
2022/10/06 02:06:27;;;;;;;4.28;3.88;;;19.10;75.80;;;;;;6276538;22;20550;-79
2022/10/06 02:08:52;;;;;;;4.10;3.70;;;19.00;75.70;;;;;;6224419;22;20180;-79
2022/10/06 02:11:18;;;;;;;4.15;3.75;;;19.00;75.60;;;;;;6249292;22;20635;-79
2022/10/06 02:13:44;;;;;;;4.60;3.60;;;19.10;75.70;;;;;;6224189;22;20172;-79
2022/10/06 02:16:12;;;;;;;3.83;3.42;;;19.00;75.60;;;;;;6224226;22;20141;-79
2022/10/06 02:18:38;;;;;;;4.00;3.55;;;19.10;75.60;;;;;;6224895;22;20591;-79
2022/10/06 02:21:04;;;;;;;3.80;3.50;;;19.00;75.60;;;;;;6224163;22;20137;-80
2022/10/06 02:23:30;;;;;;;3.90;3.60;;;19.10;75.70;;;;;;6249385;22;20538;-79
2022/10/06 02:26:05;;;;;;;3.92;3.55;;;19.00;75.60;;;;;;6249516;22;20141;-78
2022/10/06 02:28:31;;;;;;;3.83;3.53;;;19.00;75.60;;;;;;6276941;22;20136;-79
2022/10/06 02:31:02;;;;;;;3.90;3.50;;;19.00;75.60;;;;;;6278145;22;20141;-79
2022/10/06 02:33:28;;;;;;;3.80;3.50;;;19.00;75.60;;;;;;6226049;22;20205;-79
2022/10/06 02:35:55;;;;;;;4.20;3.80;;;19.00;75.60;;;;;;6251706;22;20133;-79
2022/10/06 02:38:22;;;;;;;4.03;3.63;;;19.00;75.60;;;;;;6226021;22;20464;-79
2022/10/06 02:40:48;;;;;;;4.03;3.63;;;19.00;75.60;;;;;;6226367;22;20141;-79
2022/10/06 02:43:14;;;;;;;3.97;3.58;;;19.00;75.60;;;;;;6251590;22;20564;-79
2022/10/06 02:45:42;;;;;;;3.72;3.40;;;19.00;75.60;;;;;;6251261;22;20215;-79
2022/10/06 02:48:10;;;;;;;3.90;3.60;;;19.00;75.60;;;;;;6150883;22;20170;-79
2022/10/06 02:50:38;;;;;;;4.00;3.50;;;19.00;75.60;;;;;;6200894;22;20160;-79
2022/10/06 02:53:07;;;;;;;4.93;3.90;;;19.00;75.60;;;;;;6251197;22;20164;-79
2022/10/06 02:55:34;;;;;;;3.72;3.42;;;19.00;75.60;;;;;;6252611;22;20129;-79
2022/10/06 02:58:00;;;;;;;3.78;3.45;;;19.00;75.60;;;;;;6251405;22;20583;-79
2022/10/06 03:00:27;;;;;;;3.63;3.33;;;19.00;75.50;;;;;;6226393;22;20133;-79
2022/10/06 03:02:53;;;;;;;3.97;3.58;;;19.00;75.60;;;;;;6251340;22;20215;-79
2022/10/06 03:05:19;;;;;;;3.95;3.55;;;19.00;75.50;;;;;;6278252;22;20144;-80
2022/10/06 03:07:45;;;;;;;3.90;3.60;;;19.10;75.70;;;;;;6225822;22;20568;-79
2022/10/06 03:10:11;;;;;;;4.10;3.70;;;19.00;75.60;;;;;;6278017;22;20199;-79
2022/10/06 03:12:37;;;;;;;3.85;3.47;;;19.00;75.60;;;;;;6225884;22;20239;-81
2022/10/06 03:15:03;;;;;;;3.83;3.50;;;19.00;75.60;;;;;;6226836;22;20564;-79
2022/10/06 03:17:29;;;;;;;4.10;3.70;;;19.00;75.80;;;;;;6251161;22;20129;-79
2022/10/06 03:19:56;;;;;;;4.13;3.72;;;19.00;75.80;;;;;;6225974;22;20198;-79
2022/10/06 03:22:22;;;;;;;3.70;3.40;;;19.00;75.80;;;;;;6251688;22;20129;-79
2022/10/06 03:24:48;;;;;;;3.85;3.55;;;19.00;75.70;;;;;;6278400;22;20145;-79
2022/10/06 03:27:14;;;;;;;4.00;3.60;;;19.00;75.70;;;;;;6251443;22;20160;-79
2022/10/06 03:29:40;;;;;;;3.70;3.25;;;19.00;75.60;;;;;;6225701;22;20145;-79
2022/10/06 03:32:06;;;;;;;4.60;4.20;;;19.00;75.70;;;;;;6225507;22;20168;-79
2022/10/06 03:34:32;;;;;;;4.18;3.78;;;19.00;75.60;;;;;;6250951;22;20160;-79
2022/10/06 03:36:58;;;;;;;3.88;3.53;;;19.00;75.60;;;;;;6278194;22;20141;-79
2022/10/06 03:39:24;;;;;;;4.25;3.85;;;19.00;75.60;;;;;;6225616;22;20237;-79
2022/10/06 03:41:50;;;;;;;3.80;3.45;;;19.00;75.60;;;;;;6174956;22;20152;-79
2022/10/06 03:44:16;;;;;;;3.78;3.47;;;19.00;75.70;;;;;;6277854;22;20191;-78
2022/10/06 03:46:42;;;;;;;3.85;3.55;;;19.00;75.60;;;;;;6278409;22;20499;-79
2022/10/06 03:49:08;;;;;;;4.20;3.80;;;19.00;75.70;;;;;;6277749;22;20641;-79
2022/10/06 03:51:36;;;;;;;4.13;3.78;;;19.00;75.80;;;;;;6277682;22;20212;-79
2022/10/06 03:54:02;;;;;;;3.92;3.63;;;19.00;75.80;;;;;;6250738;22;20216;-79
2022/10/06 03:56:30;;;;;;;4.28;3.88;;;19.00;75.70;;;;;;6225259;22;20562;-78
2022/10/06 03:58:58;;;;;;;4.60;4.10;;;19.00;75.70;;;;;;6250819;22;20144;-79
2022/10/06 04:01:30;;;;;;;3.95;3.55;;;19.00;75.80;;;;;;6277935;22;20125;-78
2022/10/06 04:03:56;;;;;;;4.20;3.80;;;19.00;75.70;;;;;;6225502;22;20137;-79
2022/10/06 04:06:23;;;;;;;3.95;3.60;;;19.00;75.70;;;;;;6225125;22;20140;-79
2022/10/06 04:08:49;;;;;;;3.90;3.50;;;19.00;75.70;;;;;;6225079;22;20141;-79
2022/10/06 04:11:17;;;;;;;4.07;3.70;;;19.00;75.70;;;;;;6200086;22;20145;-79
2022/10/06 04:13:44;;;;;;;4.18;3.78;;;19.00;75.70;;;;;;6250942;22;20171;-79
2022/10/06 04:16:16;;;;;;;4.00;3.60;;;19.00;75.70;;;;;;6250954;22;20137;-79
2022/10/06 04:18:42;;;;;;;3.75;3.45;;;18.90;75.70;;;;;;6250643;22;20139;-78
2022/10/06 04:21:09;;;;;;;4.20;3.80;;;18.90;75.70;;;;;;6250735;22;20132;-79
2022/10/06 04:23:35;;;;;;;4.03;3.70;;;19.00;75.70;;;;;;6250329;22;20148;-79
2022/10/06 04:26:05;;;;;;;4.18;3.78;;;19.00;75.70;;;;;;6277568;22;20148;-79
2022/10/06 04:28:31;;;;;;;4.15;3.80;;;19.00;75.70;;;;;;6277494;22;20212;-79
2022/10/06 04:30:58;;;;;;;3.92;3.60;;;19.00;75.70;;;;;;6277367;22;20211;-79
2022/10/06 04:33:25;;;;;;;4.07;3.67;;;19.00;75.80;;;;;;6250298;22;20492;-79
2022/10/06 04:35:58;;;;;;;3.53;3.22;;;19.00;75.70;;;;;;6225657;22;20168;-79
2022/10/06 04:38:24;;;;;;;4.15;3.75;;;19.00;75.80;;;;;;6224897;22;20576;-80
2022/10/06 04:40:50;;;;;;;4.20;3.80;;;19.00;75.80;;;;;;6250826;22;20141;-80
2022/10/06 04:43:16;;;;;;;4.07;3.67;;;19.00;75.80;;;;;;6250302;22;20206;-79
2022/10/06 04:45:42;;;;;;;4.30;3.90;;;19.00;75.80;;;;;;6224690;22;20507;-78
2022/10/06 04:48:08;;;;;;;3.88;3.38;;;19.00;75.90;;;;;;6277342;22;20267;-78
2022/10/06 04:50:34;;;;;;;4.07;3.60;;;18.90;75.70;;;;;;6225478;22;20159;-79
2022/10/06 04:53:00;;;;;;;3.60;3.30;;;18.90;75.90;;;;;;6250140;22;20172;-79
2022/10/06 04:55:26;;;;;;;4.72;3.75;;;18.90;75.50;;;;;;6277796;22;20572;-80
2022/10/06 04:57:56;;;;;;;4.15;3.75;;;18.90;75.40;;;;;;6250458;22;20129;-79
2022/10/06 05:00:24;;;;;;;4.05;3.65;;;19.00;75.80;;;;;;6174089;22;20176;-79
2022/10/06 05:02:55;;;;;;;3.50;3.20;;;19.00;75.80;;;;;;6174575;22;20152;-79
2022/10/06 05:05:23;;;;;;;4.05;3.72;;;19.00;75.30;;;;;;6199219;22;20160;-80
2022/10/06 05:07:50;;;;;;;3.80;3.50;;;18.90;75.60;;;;;;6174126;22;20187;-79
2022/10/06 05:10:18;;;;;;;3.05;2.75;;;19.00;75.10;;;;;;6198948;22;20200;-79
2022/10/06 05:12:43;;;;;;;3.28;2.97;;;19.00;74.70;;;;;;6198716;22;20180;-79
2022/10/06 05:15:11;;;;;;;2.60;2.40;;;19.00;74.40;;;;;;6224652;22;20133;-79
2022/10/06 05:17:38;;;;;;;2.80;2.60;;;19.00;73.90;;;;;;6174039;22;20227;-79
2022/10/06 05:20:06;;;;;;;2.83;2.60;;;19.10;73.70;;;;;;6173944;22;20149;-79
2022/10/06 05:22:33;;;;;;;2.90;2.60;;;19.00;73.50;;;;;;6199112;22;20641;-79
2022/10/06 05:25:01;;;;;;;2.85;2.63;;;19.00;73.10;;;;;;6198976;22;20191;-79
2022/10/06 05:27:28;;;;;;;3.70;2.50;;;19.10;73.00;;;;;;6173975;22;20210;-79
2022/10/06 05:29:55;;;;;;;2.65;2.45;;;19.10;72.90;;;;;;6198912;22;20149;-78
2022/10/06 05:32:22;;;;;;;3.05;2.80;;;19.10;72.70;;;;;;6173516;22;20180;-79
2022/10/06 05:34:50;;;;;;;2.40;2.20;;;19.10;72.90;;;;;;6198895;22;20153;-79
2022/10/06 05:37:17;;;;;;;2.58;2.33;;;19.00;72.70;;;;;;6174492;22;20148;-78
2022/10/06 05:39:45;;;;;;;2.60;2.38;;;19.10;72.60;;;;;;6174058;22;20148;-79
2022/10/06 05:42:12;;;;;;;2.50;2.30;;;19.10;72.40;;;;;;6199467;22;20179;-78
2022/10/06 05:44:39;;;;;;;2.40;2.20;;;19.10;72.20;;;;;;6198916;22;20483;-79
2022/10/06 05:47:06;;;;;;;2.55;2.35;;;19.20;72.20;;;;;;6199083;22;20152;-79
2022/10/06 05:49:33;;;;;;;1.95;1.85;;;19.10;72.00;;;;;;6174085;22;20581;-78
2022/10/06 05:52:00;;;;;;;2.50;2.30;;;19.10;72.00;;;;;;6149223;22;20172;-78
2022/10/06 05:54:26;;;;;;;2.50;2.30;;;19.10;71.70;;;;;;6174166;22;20148;-79
2022/10/06 05:56:52;;;;;;;2.47;2.28;;;19.20;71.70;;;;;;6250033;22;20630;-79
2022/10/06 05:59:17;;;;;;;2.47;2.28;;;19.20;71.40;;;;;;6200394;22;20164;-78
2022/10/06 06:01:43;;;;;;;2.55;2.35;;;19.20;71.20;;;;;;6224905;22;20608;-79
2022/10/06 06:04:11;;;;;;;2.33;2.13;;;19.20;71.20;;;;;;6250995;22;20561;-78
2022/10/06 06:06:38;;;;;;;2.25;2.05;;;19.20;71.20;;;;;;6252496;22;20448;-78
2022/10/06 06:09:07;;;;;;;2.30;2.10;;;19.20;70.80;;;;;;6252822;22;20612;-79
2022/10/06 06:11:32;;;;;;;2.30;2.10;;;19.20;70.80;;;;;;6252200;22;20630;-78
2022/10/06 06:13:59;;;;;;;2.30;2.08;;;19.20;70.60;;;;;;6227282;22;20125;-78
2022/10/06 06:16:29;;;;;;;2.20;2.00;;;19.20;70.70;;;;;;6252393;22;20125;-78
2022/10/06 06:18:59;;;;;;;2.33;2.13;;;19.20;70.70;;;;;;6278235;22;20129;-78
2022/10/06 06:21:25;;;;;;;2.17;1.88;;;19.30;70.60;;;;;;6277297;22;20133;-78
2022/10/06 06:23:51;;;;;;;1.80;1.70;;;19.20;70.20;;;;;;6226675;22;20231;-78
2022/10/06 06:26:22;;;;;;;2.00;1.80;;;19.20;70.00;;;;;;6251725;22;20208;-79
2022/10/06 06:28:49;;;;;;;2.20;1.90;;;19.20;69.70;;;;;;6253689;22;20141;-78
2022/10/06 06:31:19;;;;;;;1.92;1.75;;;19.20;69.50;;;;;;6251358;22;20559;-78
2022/10/06 06:33:46;;;;;;;1.60;1.50;;;19.20;69.30;;;;;;6278278;22;20185;-78
2022/10/06 06:36:15;;;;;;;2.03;1.83;;;19.20;69.30;;;;;;6252060;22;20144;-79
2022/10/06 06:38:41;;;;;;;1.88;1.70;;;19.20;69.10;;;;;;6251572;22;20182;-78
2022/10/06 06:41:24;;;;;;;1.95;1.77;;;19.20;69.10;;;;;;6226630;22;20137;-80
2022/10/06 06:43:51;;;;;;;1.50;1.40;;;19.20;68.90;;;;;;6226091;22;20136;-79
2022/10/06 06:46:18;;;;;;;1.60;1.50;;;19.30;68.60;;;;;;6251451;22;20150;-79
2022/10/06 06:48:46;;;;;;;1.80;1.70;;;19.30;68.70;;;;;;6251378;22;20236;-79
2022/10/06 06:51:12;;;;;;;1.80;1.70;;;19.30;68.50;;;;;;6225827;22;20148;-79
2022/10/06 06:53:38;;;;;;;1.63;1.52;;;19.30;68.30;;;;;;6278487;22;20165;-78
2022/10/06 06:56:05;;;;;;;2.00;1.80;;;19.30;68.30;;;;;;6251112;22;20204;-79
2022/10/06 06:58:31;;;;;;;2.00;1.90;;;19.30;68.30;;;;;;6251338;22;20133;-78
2022/10/06 07:01:12;;;;;;;1.63;1.52;;;19.30;68.20;;;;;;6278283;22;20307;-79
2022/10/06 07:03:39;;;;;;;1.88;1.67;;;19.30;68.20;;;;;;6226194;22;20144;-79
2022/10/06 07:06:08;;;;;;;2.05;1.80;;;19.30;67.90;;;;;;6225690;22;20137;-79
2022/10/06 07:08:41;;;;;;;1.70;1.50;;;19.30;67.70;;;;;;6225648;22;20141;-79
2022/10/06 07:11:16;;;;;;;1.75;1.65;;;19.30;67.20;;;;;;6245658;23;20625;-80
2022/10/06 07:13:43;;;;;;;1.30;1.20;;;19.30;67.10;;;;;;6246659;23;20252;-79
2022/10/06 07:26:59;;;;;;;1.60;1.50;;;19.40;66.10;;;;;;6247353;22;20465;-79
2022/10/06 07:29:25;;;;;;;1.50;1.40;;;19.30;65.90;;;;;;6245582;23;20149;-82
2022/10/06 07:31:51;;;;;;;1.67;1.58;;;19.30;66.00;;;;;;6220365;23;20156;-78
2022/10/06 07:34:17;;;;;;;1.45;1.35;;;19.30;66.00;;;;;;6247289;23;20204;-79
2022/10/06 07:36:49;;;;;;;1.42;1.30;;;19.30;65.90;;;;;;6245738;23;20573;-79
2022/10/06 07:39:15;;;;;;;1.30;1.20;;;19.40;65.70;;;;;;6245530;23;20581;-78
2022/10/06 07:41:41;;;;;;;3.80;1.25;;;19.40;65.30;;;;;;6247182;22;20134;-79
2022/10/06 07:44:06;;;;;;;1.30;1.10;;;19.40;64.90;;;;;;6247088;23;20134;-79
2022/10/06 07:46:32;;;;;;;1.30;1.08;;;19.40;64.80;;;;;;6246448;23;20149;-78
2022/10/06 07:48:59;;;;;;;1.35;1.25;;;19.40;64.30;;;;;;6247052;23;20184;-78
2022/10/06 07:51:26;;;;;;;1.17;1.08;;;19.40;64.30;;;;;;6247210;23;20145;-79
2022/10/06 07:53:52;;;;;;;1.42;1.30;;;19.40;64.00;;;;;;6247134;23;20173;-79
2022/10/06 07:56:19;;;;;;;0.90;0.90;;;19.30;64.10;;;;;;6245225;23;20222;-78
2022/10/06 07:58:47;;;;;;;1.10;1.00;;;19.40;63.80;;;;;;6247166;22;20129;-79
2022/10/06 08:01:14;;;;;;;1.67;1.20;;;19.40;63.90;;;;;;6245241;23;20173;-78
2022/10/06 08:03:41;;;;;;;1.25;1.10;;;19.40;64.20;;;;;;6244959;23;20149;-79
2022/10/06 08:06:12;;;;;;;1.48;1.20;;;19.40;64.50;;;;;;6246921;22;20142;-79
2022/10/06 08:08:38;;;;;;;1.33;1.20;;;19.40;64.30;;;;;;6245174;23;20565;-79
2022/10/06 08:11:05;;;;;;;1.48;1.13;;;19.40;63.80;;;;;;6273114;22;20192;-80
2022/10/06 08:13:31;;;;;;;1.67;1.08;;;19.40;63.50;;;;;;6250260;22;20173;-79
2022/10/06 08:16:06;;;;;;;1.05;0.98;;;19.40;63.00;;;;;;6277640;22;20160;-78
2022/10/06 08:18:32;;;;;;;1.05;0.98;;;19.40;63.00;;;;;;6277131;22;20186;-78
2022/10/06 08:20:58;;;;;;;1.27;1.00;;;19.40;63.00;;;;;;6277116;22;20133;-79
2022/10/06 08:23:25;;;;;;;1.92;0.90;;;19.40;62.90;;;;;;6224702;22;20152;-79
2022/10/06 08:25:52;;;;;;;1.40;1.10;;;19.40;62.90;;;;;;6277451;22;20133;-79
2022/10/06 08:28:19;;;;;;;1.40;1.30;;;19.40;63.10;;;;;;6250133;22;20133;-79
2022/10/06 08:30:45;;;;;;;1.13;1.00;;;19.40;63.10;;;;;;6249979;22;20585;-79
2022/10/06 08:33:11;;;;;;;1.00;0.90;;;19.40;62.50;;;;;;6277114;22;20167;-79
2022/10/06 08:35:38;;;;;;;1.20;0.93;;;19.40;62.40;;;;;;6250002;22;20152;-78
2022/10/06 08:38:04;;;;;;;1.10;1.00;;;19.40;62.40;;;;;;6250463;22;20485;-79
2022/10/06 08:40:30;;;;;;;1.40;0.90;;;19.40;62.20;;;;;;6250069;22;20476;-81
2022/10/06 08:42:57;;;;;;;1.48;0.90;;;19.40;61.80;;;;;;6250329;22;20153;-81
2022/10/06 08:45:28;;;;;;;1.15;1.10;;;19.40;61.80;;;;;;6250041;22;20143;-79
2022/10/06 08:48:14;;;;;;;1.27;0.88;;;19.40;61.60;;;;;;6249837;22;20534;-79
2022/10/06 08:51:14;;;;;;;2.33;0.93;;;19.40;61.40;;;;;;6250829;22;20156;-80
2022/10/06 08:53:45;;;;;;;0.60;0.60;;;19.40;61.30;;;;;;6250029;22;20259;-79
2022/10/06 08:56:19;;;;;;;1.05;0.95;;;19.40;61.20;;;;;;6224872;22;20240;-81
2022/10/06 08:58:54;;;;;;;0.80;0.80;;;19.40;61.10;;;;;;6277189;22;20142;-79
2022/10/06 09:01:23;;;;;;;1.02;0.93;;;19.50;61.10;;;;;;6224491;22;20144;-79
2022/10/06 09:03:54;;;;;;;0.77;0.77;;;19.40;61.50;;;;;;6250073;22;20144;-79
2022/10/06 09:06:34;;;;;;;1.90;0.80;;;19.50;61.20;;;;;;6277187;22;20137;-79
2022/10/06 09:09:17;;;;;;;0.98;0.90;;;19.40;60.60;;;;;;6250043;22;20140;-79
2022/10/06 09:12:03;;;;;;;0.57;0.57;;;19.50;60.80;;;;;;6277038;22;20214;-80
2022/10/06 09:14:36;;;;;;;0.77;0.73;;;19.50;60.50;;;;;;6277295;22;20143;-79
2022/10/06 09:17:03;;;;;;;0.82;0.60;;;19.40;60.30;;;;;;6225399;22;20576;-79
2022/10/06 09:19:38;;;;;;;1.08;0.98;;;19.50;59.80;;;;;;6225032;22;20145;-79
2022/10/06 09:22:05;;;;;;;1.77;0.82;;;19.50;59.80;;;;;;6250093;22;20137;-79
2022/10/06 09:24:36;;;;;;;0.70;0.70;;;19.50;59.80;;;;;;6224403;22;20145;-79
2022/10/06 09:27:15;;;;;;;0.95;0.80;;;19.50;59.70;;;;;;6224915;22;20630;-78
2022/10/06 09:29:43;;;;;;;0.93;0.80;;;19.50;59.50;;;;;;6224830;22;20172;-79
2022/10/06 09:32:09;;;;;;;1.20;0.80;;;19.60;59.40;;;;;;6224735;22;20176;-78
2022/10/06 09:34:39;;;;;;;2.22;0.90;;;19.50;59.30;;;;;;6250168;22;20137;-79
2022/10/06 09:37:09;;;;;;;1.10;0.85;;;19.60;59.40;;;;;;6225919;22;20141;-79
2022/10/06 09:39:37;;;;;;;1.40;1.00;;;19.50;59.20;;;;;;6224717;22;20270;-79
2022/10/06 09:42:06;;;;;;;0.85;0.65;;;19.50;59.20;;;;;;6224592;22;20149;-79
2022/10/06 09:44:54;;;;;;;0.70;0.70;;;19.50;59.10;;;;;;6250291;22;20136;-78
2022/10/06 09:47:43;;;;;;;0.68;0.68;;;19.50;59.10;;;;;;6250378;22;20190;-78
2022/10/06 09:57:33;;;;;;;1.00;0.73;;;19.60;58.70;;;;;;6013668;23;20486;-78
2022/10/06 10:01:10;;;;;;;1.13;0.80;;;19.60;58.70;;;;;;5982223;23;20166;-78
2022/10/06 10:04:42;;;;;;;;;;;;;;;;;;;;;
2022/10/06 10:07:48;;;;;;;0.90;0.80;;;19.50;58.50;;;;;;5842615;24;20170;-78
2022/10/06 10:14:02;;;;;;;0.88;0.80;;;19.50;58.40;;;;;;5763784;24;20211;-79
2022/10/06 10:16:50;;;;;;;1.73;0.73;;;19.60;58.40;;;;;;5764801;24;20164;-79
2022/10/06 10:19:26;;;;;;;0.80;0.63;;;19.50;58.30;;;;;;5741175;24;20169;-77
2022/10/06 10:21:59;;;;;;;0.75;0.70;;;19.50;58.30;;;;;;5765398;24;20168;-78
2022/10/06 10:24:58;;;;;;;0.73;0.70;;;19.50;58.30;;;;;;5712235;24;20168;-79
2022/10/06 10:27:30;;;;;;;0.65;0.65;;;19.50;58.20;;;;;;5769257;24;20631;-79
2022/10/06 10:30:06;;;;;;;0.70;0.68;;;19.50;58.10;;;;;;5773296;24;20171;-80
2022/10/06 10:33:01;;;;;;;0.50;0.50;;;19.50;58.00;;;;;;5847440;24;20558;-80
2022/10/06 10:35:30;;;;;;;0.82;0.82;;;19.50;58.00;;;;;;5964293;23;20166;-79
2022/10/06 10:38:02;;;;;;;0.60;0.60;;;19.50;58.00;;;;;;6037028;23;20161;-78
2022/10/06 10:40:36;;;;;;;0.93;0.80;;;19.60;58.00;;;;;;6022107;23;20164;-79
2022/10/06 10:43:12;;;;;;;1.63;0.65;;;19.50;57.90;;;;;;6127089;23;20528;-79
2022/10/06 10:46:10;;;;;;;0.47;0.47;;;19.50;58.00;;;;;;6168189;23;20547;-79
2022/10/06 10:48:42;;;;;;;2.25;0.77;;;19.50;58.00;;;;;;6218343;23;20221;-79
2022/10/06 10:51:20;;;;;;;1.00;0.65;;;19.50;58.00;;;;;;6218858;23;20150;-78
2022/10/06 10:53:49;;;;;;;2.08;0.70;;;19.50;57.90;;;;;;6170910;23;20267;-79
2022/10/06 10:56:16;;;;;;;1.30;0.80;;;19.60;58.00;;;;;;6218753;23;20607;-79
2022/10/06 10:58:45;;;;;;;0.82;0.70;;;19.50;57.90;;;;;;6219076;23;20134;-79
2022/10/06 11:01:17;;;;;;;1.52;0.70;;;19.50;58.00;;;;;;6218985;23;20146;-78
2022/10/06 11:03:43;;;;;;;1.15;0.60;;;19.50;57.60;;;;;;6219358;23;20579;-77
2022/10/06 11:06:21;;;;;;;1.38;0.50;;;19.50;57.60;;;;;;6219813;23;20152;-77
2022/10/06 11:09:06;;;;;;;1.20;0.70;;;19.50;57.90;;;;;;6220132;23;20476;-77
2022/10/06 11:11:46;;;;;;;0.88;0.70;;;19.50;57.60;;;;;;6182750;23;20721;-77
2022/10/06 11:14:44;;;;;;;0.70;0.70;;;19.50;57.50;;;;;;6133539;23;20238;-77
2022/10/06 11:17:43;;;;;;;1.33;0.63;;;19.50;57.50;;;;;;6182954;23;20149;-77
2022/10/06 11:21:19;;;;;;;;;;;;;;;;;;;;;
2022/10/06 11:31:36;;;;;;;0.85;0.50;;;19.50;57.40;;;;;;5911443;24;20180;-78
2022/10/06 11:34:10;;;;;;;1.70;0.55;;;19.50;57.40;;;;;;5842990;24;20243;-78
2022/10/06 11:36:56;;;;;;;1.13;0.52;;;19.60;57.40;;;;;;5799459;24;20231;-79
2022/10/06 11:40:39;;;;;;;1.17;0.60;;;19.50;57.40;;;;;;5821280;24;20553;-79
2022/10/06 11:42:48;;;;;;;0.47;0.47;;;19.50;57.20;;;;;;5825245;24;20181;-78
2022/10/06 11:49:23;;;;;;;0.70;0.50;;;19.50;57.00;;;;;;5816832;24;20228;-78
2022/10/06 11:51:56;;;;;;;1.08;0.68;;;19.60;56.90;;;;;;5817254;24;20314;-78
2022/10/06 11:54:49;;;;;;;0.75;0.50;;;19.60;56.90;;;;;;5837357;24;20170;-79
2022/10/06 11:57:59;;;;;;;0.68;0.60;;;19.60;56.70;;;;;;5837922;24;20160;-78
2022/10/06 12:01:42;;;;;;;;;;;;;;;;;;;;;
2022/10/06 12:05:24;;;;;;;0.88;0.60;;;19.60;56.50;;;;;;5857595;24;20164;-79
2022/10/06 12:08:15;;;;;;;2.33;0.45;;;19.70;56.20;;;;;;6042925;23;20215;-77
2022/10/06 12:10:54;;;;;;;2.45;0.43;;;19.60;56.00;;;;;;6101848;23;20339;-78
2022/10/06 12:13:47;;;;;;;0.50;0.50;;;19.60;56.00;;;;;;6065764;23;20181;-78
2022/10/06 12:16:46;;;;;;;;;;;;;;;;;;;;;
2022/10/06 12:20:33;;;;;;;4.70;0.50;;;19.70;55.90;;;;;;5998704;23;20526;-78
2022/10/06 12:26:56;;;;;;;3.78;0.73;;;19.70;55.80;;;;;;5897069;24;20498;-78
2022/10/06 12:30:23;;;;;;;0.70;0.50;;;19.70;56.20;;;;;;5897391;24;20169;-78
2022/10/06 12:36:22;;;;;;;2.58;0.40;;;19.70;55.70;;;;;;5814083;24;20167;-78
2022/10/06 12:49:49;;;;;;;0.90;0.52;;;19.80;55.40;;;;;;5737481;24;20496;-78
2022/10/06 12:56:26;;;;;;;;;;;;;;;;;;;;;
2022/10/06 13:03:25;;;;;;;;;;;;;;;;;;;;;
2022/10/06 13:09:49;;;;;;;;;;;;;;;;;;;;;
2022/10/06 13:12:48;;;;;;;1.35;0.50;;;19.60;55.30;;;;;;5766093;24;20290;-78
2022/10/06 13:15:34;;;;;;;0.52;0.40;;;19.70;55.30;;;;;;5790483;24;20280;-79
2022/10/06 13:18:23;;;;;;;1.40;0.57;;;19.70;55.20;;;;;;5782741;24;20591;-79
2022/10/06 13:20:51;;;;;;;0.50;0.40;;;19.60;55.30;;;;;;5812835;24;20589;-78
2022/10/06 13:23:30;;;;;;;2.78;0.50;;;19.70;55.30;;;;;;5788224;24;20175;-80
2022/10/06 13:26:01;;;;;;;0.80;0.60;;;19.60;55.40;;;;;;5803119;24;20158;-79
2022/10/06 13:28:48;;;;;;;0.50;0.43;;;19.70;55.40;;;;;;5843630;24;20254;-79
2022/10/06 13:31:26;;;;;;;0.93;0.45;;;19.60;55.90;;;;;;5843338;24;20472;-80
2022/10/06 13:34:00;;;;;;;0.63;0.52;;;19.70;55.40;;;;;;5917777;24;20262;-78
2022/10/06 13:36:27;;;;;;;1.33;0.75;;;19.70;55.10;;;;;;5977123;23;20152;-78
2022/10/06 13:38:55;;;;;;;1.00;0.60;;;19.80;55.10;;;;;;6070599;23;20160;-78
2022/10/06 13:41:35;;;;;;;1.83;0.50;;;19.60;55.20;;;;;;6000029;23;20632;-79
2022/10/06 13:48:44;;;;;;;1.88;0.55;;;19.70;55.10;;;;;;6041728;23;20169;-78
2022/10/06 13:58:16;;;;;;;9.60;1.27;;;19.80;55.40;;;;;;5891581;24;20165;-79
2022/10/06 14:00:59;;;;;;;1.27;0.55;;;19.80;55.60;;;;;;5853941;24;20259;-80
2022/10/06 14:04:19;;;;;;;1.48;0.63;;;19.80;55.50;;;;;;5872183;24;20154;-78
2022/10/06 14:07:17;;;;;;;3.30;0.80;;;19.80;55.20;;;;;;5817942;24;20163;-79
2022/10/06 14:09:44;;;;;;;0.45;0.40;;;19.80;55.10;;;;;;5777458;24;20230;-80
2022/10/06 14:12:13;;;;;;;2.47;0.60;;;19.80;54.90;;;;;;5819476;24;20229;-79
2022/10/06 14:14:47;;;;;;;2.25;0.50;;;19.70;54.90;;;;;;5819720;24;20152;-80
2022/10/06 14:30:42;;;;;;;1.70;0.60;;;19.80;54.40;;;;;;5942869;23;20218;-80
2022/10/06 14:33:08;;;;;;;1.23;0.40;;;19.80;54.90;;;;;;5965934;23;20522;-80
2022/10/06 14:35:34;;;;;;;0.52;0.43;;;19.80;54.20;;;;;;6020774;23;20153;-79
2022/10/06 14:38:00;;;;;;;0.55;0.40;;;19.80;54.20;;;;;;6045709;23;20153;-78
2022/10/06 14:40:27;;;;;;;1.77;0.63;;;19.80;54.10;;;;;;6045836;23;20146;-79
2022/10/06 14:42:54;;;;;;;1.77;0.40;;;19.70;54.10;;;;;;6043107;23;20605;-79
2022/10/06 14:45:21;;;;;;;0.65;0.40;;;19.70;54.00;;;;;;6172408;23;20252;-79
2022/10/06 14:47:47;;;;;;;2.20;0.40;;;19.80;54.10;;;;;;6197631;23;20646;-79
2022/10/06 14:50:14;;;;;;;0.82;0.55;;;19.80;54.00;;;;;;6197131;23;20153;-79